Time;durP1;ratioP1;P1;durP2;ratioP2;P2;SDS_P1;SDS_P2;PMS_P1;PMS_P2;Temp;Humidity;BMP_temperature;BMP_pressure;BME280_temperature;BME280_humidity;BME280_pressure;Samples;Min_cycle;Max_cycle;Signal;HPM_P1;HPM_P2
2023/12/23 00:00:00;;;;;;;2.10;1.17;;;;;;;10.31;57.57;100141.84;680622;29;848;-89
2023/12/23 00:00:21;;;;;;;1.80;1.10;;;;;;;10.30;58.01;100123.59;682606;28;1232;-89
2023/12/23 00:00:41;;;;;;;1.20;1.00;;;;;;;10.26;57.92;100120.06;682337;28;1492;-90
2023/12/23 00:01:04;;;;;;;1.10;0.90;;;;;;;10.28;57.82;100113.13;683240;28;1176;-90
2023/12/23 00:01:25;;;;;;;1.10;0.90;;;;;;;10.37;57.93;100126.34;682775;29;1393;-90
2023/12/23 00:01:46;;;;;;;3.63;1.03;;;;;;;10.37;57.56;100126.34;677989;29;1225;-90
2023/12/23 00:02:06;;;;;;;5.95;1.50;;;;;;;10.29;57.76;100117.50;674761;29;1304;-89
2023/12/23 00:02:27;;;;;;;6.43;1.60;;;;;;;10.34;57.49;100130.63;682963;29;1530;-90
2023/12/23 00:02:55;;;;;;;3.60;1.50;;;;;;;10.41;57.56;100133.38;685893;28;1233;-90
2023/12/23 00:03:15;;;;;;;6.30;1.30;;;;;;;10.26;57.75;100122.66;682986;29;1319;-89
2023/12/23 00:03:36;;;;;;;6.60;1.50;;;;;;;10.27;57.71;100127.03;681798;28;1530;-90
2023/12/23 00:03:58;;;;;;;3.60;1.20;;;;;;;10.26;57.86;100110.47;683127;28;1179;-90
2023/12/23 00:04:19;;;;;;;2.45;1.15;;;;;;;10.33;57.85;100127.09;682620;29;1692;-89
2023/12/23 00:04:39;;;;;;;3.03;1.00;;;;;;;10.29;57.30;100127.91;685600;28;1130;-90
2023/12/23 00:05:00;;;;;;;3.08;1.10;;;;;;;10.27;57.78;100113.97;679304;28;1835;-90
2023/12/23 00:05:21;;;;;;;2.30;1.00;;;;;;;10.28;58.18;100127.03;686188;28;1922;-89
2023/12/23 00:05:42;;;;;;;5.70;1.10;;;;;;;10.37;58.17;100130.66;685517;28;1575;-90
2023/12/23 00:06:04;;;;;;;6.13;1.10;;;;;;;10.27;57.76;100117.44;680502;29;1154;-90
2023/12/23 00:06:24;;;;;;;6.10;1.10;;;;;;;10.30;57.87;100126.22;683048;29;1240;-89
2023/12/23 00:06:45;;;;;;;2.47;1.10;;;;;;;10.29;57.53;100140.97;682553;29;1556;-90
2023/12/23 00:07:06;;;;;;;2.63;1.20;;;;;;;10.23;57.76;100126.09;680514;29;1160;-90
2023/12/23 00:07:29;;;;;;;3.10;1.40;;;;;;;10.36;57.61;100132.41;680341;29;1198;-89
2023/12/23 00:07:50;;;;;;;2.53;1.40;;;;;;;10.44;57.69;100137.75;682986;28;1209;-90
2023/12/23 00:08:10;;;;;;;1.95;1.15;;;;;;;10.37;57.86;100122.84;683284;28;1238;-89
2023/12/23 00:08:31;;;;;;;2.60;1.10;;;;;;;10.27;57.39;100119.19;686214;28;1241;-89
2023/12/23 00:08:52;;;;;;;2.85;1.20;;;;;;;10.37;57.40;100128.94;678426;29;1310;-90
2023/12/23 00:09:15;;;;;;;2.90;1.20;;;;;;;10.39;57.52;100124.63;683072;29;1305;-90
2023/12/23 00:09:35;;;;;;;4.00;1.40;;;;;;;10.33;57.65;100119.28;683688;28;974;-88
2023/12/23 00:09:56;;;;;;;4.97;1.63;;;;;;;10.24;57.68;100135.66;686007;28;740;-90
2023/12/23 00:10:17;;;;;;;5.57;1.70;;;;;;;10.20;57.19;100127.72;688456;28;1214;-90
2023/12/23 00:10:37;;;;;;;4.50;1.60;;;;;;;10.25;57.56;100128.69;683017;29;1142;-90
2023/12/23 00:10:58;;;;;;;5.50;1.65;;;;;;;10.28;57.71;100113.13;683230;29;803;-89
2023/12/23 00:11:19;;;;;;;4.17;1.60;;;;;;;10.35;57.52;100128.03;685256;28;1295;-89
2023/12/23 00:11:39;;;;;;;4.30;1.60;;;;;;;10.31;57.70;100121.00;682987;28;848;-90
2023/12/23 00:12:00;;;;;;;2.03;1.02;;;;;;;10.24;57.65;100119.13;680325;29;1807;-90
2023/12/23 00:12:21;;;;;;;5.33;1.20;;;;;;;10.27;57.77;100124.41;682957;29;1145;-90
2023/12/23 00:12:41;;;;;;;9.90;1.10;;;;;;;10.36;57.89;100128.91;686032;28;1322;-90
2023/12/23 00:13:02;;;;;;;10.00;1.30;;;;;;;10.27;57.89;100129.63;680351;29;1624;-90
2023/12/23 00:13:23;;;;;;;7.15;1.35;;;;;;;10.33;58.04;100129.72;680001;29;1278;-90
2023/12/23 00:13:43;;;;;;;4.80;1.63;;;;;;;10.33;58.01;100124.50;682611;28;1236;-89
2023/12/23 00:14:19;;;;;;;5.10;1.77;;;;;;;10.34;57.79;100131.50;683161;29;874;-90
2023/12/23 00:14:39;;;;;;;4.78;1.58;;;;;;;10.34;58.14;100123.69;683685;28;1114;-89
2023/12/23 00:15:00;;;;;;;5.37;1.33;;;;;;;10.50;58.17;100131.78;685624;28;1164;-89
2023/12/23 00:15:20;;;;;;;8.70;1.40;;;;;;;10.45;58.23;100123.84;685703;28;1292;-89
2023/12/23 00:15:41;;;;;;;9.50;1.30;;;;;;;10.50;58.01;100116.13;685644;28;1253;-90
2023/12/23 00:16:02;;;;;;;5.93;1.10;;;;;;;10.57;57.97;100132.75;683002;29;1210;-89
2023/12/23 00:16:24;;;;;;;4.78;1.00;;;;;;;10.61;57.83;100118.91;680504;29;1225;-89
2023/12/23 00:16:44;;;;;;;2.10;1.00;;;;;;;10.60;57.98;100154.56;685312;28;1518;-89
2023/12/23 00:17:05;;;;;;;3.17;1.42;;;;;;;10.55;58.00;100156.22;690566;28;1740;-89
2023/12/23 00:17:25;;;;;;;2.60;1.40;;;;;;;10.62;57.75;100126.75;683212;28;1297;-88
2023/12/23 00:17:46;;;;;;;3.17;1.50;;;;;;;10.48;57.95;100128.25;677913;29;1253;-90
2023/12/23 00:18:07;;;;;;;3.78;1.20;;;;;;;10.53;57.68;100143.16;677976;29;1131;-90
2023/12/23 00:18:28;;;;;;;4.72;1.10;;;;;;;10.58;58.13;100139.72;682732;29;1240;-89
2023/12/23 00:18:49;;;;;;;4.60;1.00;;;;;;;10.68;58.25;100152.97;685783;28;1159;-89
2023/12/23 00:19:09;;;;;;;2.63;1.08;;;;;;;10.62;58.04;100132.00;683155;29;1143;-89
2023/12/23 00:19:30;;;;;;;2.13;1.20;;;;;;;10.62;57.85;100147.63;680979;29;863;-90
2023/12/23 00:19:50;;;;;;;1.30;1.20;;;;;;;10.73;57.74;100152.16;686008;28;1145;-90
2023/12/23 00:20:11;;;;;;;1.23;1.10;;;;;;;10.74;57.53;100148.72;685549;28;1189;-90
2023/12/23 00:20:32;;;;;;;1.90;1.30;;;;;;;10.76;57.89;100147.88;683642;28;1471;-89
2023/12/23 00:20:52;;;;;;;4.40;1.60;;;;;;;10.78;57.42;100163.56;685867;28;1214;-90
2023/12/23 00:21:13;;;;;;;4.47;1.55;;;;;;;10.71;57.15;100156.47;685021;28;1187;-90
2023/12/23 00:21:34;;;;;;;3.95;1.45;;;;;;;10.73;57.57;100154.78;678739;29;1221;-90
2023/12/23 00:21:54;;;;;;;3.10;1.33;;;;;;;10.78;57.60;100159.25;682768;29;1154;-89
2023/12/23 00:22:15;;;;;;;3.40;1.40;;;;;;;10.73;57.70;100154.78;685775;28;1201;-89
2023/12/23 00:22:36;;;;;;;3.45;1.27;;;;;;;10.77;57.52;100154.88;682998;28;1278;-89
2023/12/23 00:22:57;;;;;;;2.35;1.02;;;;;;;10.76;57.76;100160.06;683054;29;1319;-90
2023/12/23 00:23:17;;;;;;;2.83;1.30;;;;;;;10.81;57.87;100155.78;680586;29;985;-89
2023/12/23 00:23:38;;;;;;;3.10;1.40;;;;;;;10.78;57.95;100155.75;684149;28;1348;-89
2023/12/23 00:23:58;;;;;;;4.70;1.70;;;;;;;10.76;57.93;100154.84;688436;28;1153;-88
2023/12/23 00:24:19;;;;;;;4.07;1.42;;;;;;;10.80;57.82;100161.84;686085;28;1137;-90
2023/12/23 00:24:40;;;;;;;3.53;1.30;;;;;;;10.81;57.81;100158.38;683419;29;1247;-89
2023/12/23 00:25:00;;;;;;;1.40;1.10;;;;;;;10.89;57.87;100172.47;680949;29;1190;-89
2023/12/23 00:25:21;;;;;;;1.43;1.20;;;;;;;10.94;57.89;100164.72;687424;28;1958;-89
2023/12/23 00:25:42;;;;;;;2.70;1.50;;;;;;;10.89;57.79;100150.72;687896;28;1208;-90
2023/12/23 00:26:02;;;;;;;5.50;1.50;;;;;;;10.94;57.34;100162.97;683347;29;1165;-89
2023/12/23 00:26:23;;;;;;;8.80;1.50;;;;;;;10.89;57.30;100163.75;683314;29;1283;-89
2023/12/23 00:26:44;;;;;;;8.00;1.40;;;;;;;10.85;57.50;100155.00;690701;28;1491;-89
2023/12/23 00:27:04;;;;;;;9.70;1.20;;;;;;;10.94;57.56;100176.03;683182;29;1339;-88
2023/12/23 00:27:25;;;;;;;7.90;1.40;;;;;;;10.78;57.36;100174.91;683209;29;1116;-88
2023/12/23 00:27:45;;;;;;;10.77;1.43;;;;;;;10.85;57.19;100167.16;690789;28;1221;-90
2023/12/23 00:28:06;;;;;;;7.10;1.50;;;;;;;10.87;57.43;100160.25;683522;28;1413;-88
2023/12/23 00:28:27;;;;;;;5.95;1.40;;;;;;;10.94;57.21;100175.16;686011;28;1147;-89
2023/12/23 00:28:47;;;;;;;5.28;1.77;;;;;;;10.89;57.24;100172.47;685806;28;1133;-90
2023/12/23 00:29:08;;;;;;;4.63;1.80;;;;;;;10.86;57.11;100169.78;690812;28;1363;-90
2023/12/23 00:29:29;;;;;;;8.02;1.80;;;;;;;10.88;57.44;100155.03;692480;28;1392;-88
2023/12/23 00:29:49;;;;;;;6.72;1.35;;;;;;;10.88;57.29;100159.41;688081;28;1287;-89
2023/12/23 00:30:13;;;;;;;6.40;1.07;;;;;;;10.88;57.25;100162.88;684574;28;1487;-89
2023/12/23 00:30:34;;;;;;;1.30;0.93;;;;;;;10.94;57.39;100168.19;683751;28;1311;-90
2023/12/23 00:30:54;;;;;;;2.40;1.10;;;;;;;10.87;57.89;100153.28;682992;29;1694;-90
2023/12/23 00:31:15;;;;;;;2.70;1.25;;;;;;;11.00;57.52;100172.63;680695;29;1484;-89
2023/12/23 00:31:36;;;;;;;5.40;1.20;;;;;;;10.86;57.36;100166.31;684249;28;1197;-90
2023/12/23 00:31:56;;;;;;;5.70;1.30;;;;;;;10.86;57.47;100172.41;680659;28;1103;-89
2023/12/23 00:32:17;;;;;;;5.07;1.10;;;;;;;10.83;57.35;100172.38;681983;29;1451;-90
2023/12/23 00:32:40;;;;;;;3.13;1.10;;;;;;;10.85;57.36;100170.66;681573;29;1204;-90
2023/12/23 00:33:02;;;;;;;2.85;1.25;;;;;;;10.95;57.47;100167.34;679804;29;1329;-89
2023/12/23 00:33:23;;;;;;;3.10;1.50;;;;;;;10.91;57.11;100170.75;680342;29;1323;-89
2023/12/23 00:33:44;;;;;;;3.10;1.70;;;;;;;10.89;57.48;100171.59;685089;28;1307;-89
2023/12/23 00:34:06;;;;;;;3.30;1.50;;;;;;;10.86;57.19;100172.41;685539;28;1209;-90
2023/12/23 00:34:27;;;;;;;6.23;1.33;;;;;;;10.92;57.35;100175.13;683168;28;1643;-91
2023/12/23 00:34:48;;;;;;;5.25;1.10;;;;;;;10.81;57.52;100182.78;683461;28;1279;-90
2023/12/23 00:35:08;;;;;;;4.70;1.00;;;;;;;10.94;57.29;100180.38;688217;28;1297;-91
2023/12/23 00:35:29;;;;;;;4.00;1.10;;;;;;;10.76;57.76;100175.72;688464;28;1264;-90
2023/12/23 00:35:50;;;;;;;5.50;1.40;;;;;;;10.86;57.77;100175.03;683283;29;1128;-90
2023/12/23 00:36:10;;;;;;;8.77;1.33;;;;;;;10.95;57.69;100172.56;682929;29;1194;-90
2023/12/23 00:36:31;;;;;;;6.53;1.20;;;;;;;10.91;57.35;100162.94;685686;28;1143;-90
2023/12/23 00:36:52;;;;;;;5.53;1.10;;;;;;;10.97;57.38;100168.25;683156;29;1222;-90
2023/12/23 00:37:13;;;;;;;3.13;1.60;;;;;;;10.98;57.38;100187.41;680723;29;1324;-89
2023/12/23 00:37:33;;;;;;;3.10;1.50;;;;;;;11.00;57.33;100182.22;682904;29;1267;-91
2023/12/23 00:37:54;;;;;;;4.72;1.60;;;;;;;10.89;57.11;100182.91;685775;28;1278;-91
2023/12/23 00:38:16;;;;;;;5.53;1.50;;;;;;;10.93;57.47;100169.06;685504;28;1379;-90
2023/12/23 00:38:37;;;;;;;6.97;1.60;;;;;;;10.95;57.19;100156.91;684376;28;1193;-89
2023/12/23 00:38:57;;;;;;;5.28;1.58;;;;;;;11.00;57.33;100169.16;687342;28;1256;-90
2023/12/23 00:39:18;;;;;;;4.47;1.30;;;;;;;10.95;57.09;100162.13;685693;28;1126;-90
2023/12/23 00:39:40;;;;;;;7.57;1.25;;;;;;;10.97;57.37;100154.31;681461;28;1234;-90
2023/12/23 00:40:02;;;;;;;7.20;1.20;;;;;;;11.01;57.59;100170.91;680465;29;1065;-90
2023/12/23 00:40:22;;;;;;;6.00;1.30;;;;;;;11.03;57.32;100164.88;680254;29;1411;-90
2023/12/23 00:40:43;;;;;;;5.13;1.40;;;;;;;11.03;57.05;100174.41;680235;29;1188;-90
2023/12/23 00:41:04;;;;;;;8.07;1.50;;;;;;;10.87;56.67;100174.16;680339;29;1115;-91
2023/12/23 00:41:24;;;;;;;6.80;1.20;;;;;;;10.92;57.01;100172.53;682766;29;1053;-90
2023/12/23 00:41:45;;;;;;;3.28;0.95;;;;;;;10.89;56.52;100177.69;688173;28;1247;-89
2023/12/23 00:42:06;;;;;;;1.20;0.80;;;;;;;10.96;56.86;100163.00;685896;28;1044;-90
2023/12/23 00:42:26;;;;;;;1.40;0.90;;;;;;;11.04;56.99;100177.06;685491;28;1148;-89
2023/12/23 00:42:47;;;;;;;2.67;1.10;;;;;;;10.95;56.74;100167.34;680519;29;1179;-89
2023/12/23 00:43:08;;;;;;;3.00;1.35;;;;;;;10.97;56.55;100169.97;685484;28;1130;-90
2023/12/23 00:43:28;;;;;;;2.60;1.37;;;;;;;10.95;56.74;100161.25;682858;28;1166;-90
2023/12/23 00:43:49;;;;;;;2.55;1.63;;;;;;;10.93;56.39;100158.59;680468;29;1164;-90
2023/12/23 00:44:10;;;;;;;4.20;1.60;;;;;;;11.01;56.77;100155.25;683169;29;1099;-90
2023/12/23 00:44:30;;;;;;;5.17;1.70;;;;;;;10.95;57.15;100154.28;682809;28;1137;-90
2023/12/23 00:44:51;;;;;;;4.22;1.30;;;;;;;11.02;56.84;100154.38;683005;29;1230;-90
2023/12/23 00:45:12;;;;;;;2.83;1.20;;;;;;;11.03;56.69;100163.97;682127;29;1911;-90
2023/12/23 00:45:32;;;;;;;2.55;1.20;;;;;;;11.03;56.77;100158.75;685828;28;764;-90
2023/12/23 00:45:55;;;;;;;4.90;1.40;;;;;;;11.02;56.63;100146.56;685654;28;1217;-90
2023/12/23 00:46:16;;;;;;;4.70;1.20;;;;;;;10.97;56.86;100155.22;685757;28;1244;-90
2023/12/23 00:46:37;;;;;;;4.78;1.20;;;;;;;10.88;56.74;100152.41;680455;29;1265;-89
2023/12/23 00:46:58;;;;;;;1.80;1.00;;;;;;;10.99;57.17;100162.19;680208;29;1249;-89
2023/12/23 00:47:21;;;;;;;2.65;1.17;;;;;;;11.02;56.92;100162.22;680171;29;1240;-89
2023/12/23 00:47:42;;;;;;;2.08;1.23;;;;;;;10.93;56.87;100157.72;682672;28;1229;-88
2023/12/23 00:48:03;;;;;;;6.78;1.50;;;;;;;11.03;57.24;100163.97;683176;29;1070;-90
2023/12/23 00:48:23;;;;;;;5.93;1.35;;;;;;;10.91;57.16;100157.72;683919;28;1281;-90
2023/12/23 00:48:44;;;;;;;6.30;1.40;;;;;;;10.91;57.19;100155.09;682860;28;1190;-90
2023/12/23 00:49:04;;;;;;;3.90;1.20;;;;;;;10.92;56.95;100150.75;682880;29;1249;-89
2023/12/23 00:49:25;;;;;;;6.85;1.40;;;;;;;10.86;56.97;100151.53;682459;29;1217;-90
2023/12/23 00:49:46;;;;;;;6.67;1.30;;;;;;;10.93;56.98;100153.38;680681;29;1473;-89
2023/12/23 00:50:08;;;;;;;8.07;1.40;;;;;;;10.93;56.87;100162.94;680145;28;1164;-90
2023/12/23 00:50:29;;;;;;;8.27;1.45;;;;;;;11.03;56.65;100158.75;684693;28;1427;-89
2023/12/23 00:50:49;;;;;;;8.80;1.63;;;;;;;11.05;56.90;100151.84;685756;28;1219;-90
2023/12/23 00:51:10;;;;;;;6.27;1.57;;;;;;;11.00;56.79;100148.28;680320;29;1170;-88
2023/12/23 00:51:31;;;;;;;3.90;1.30;;;;;;;10.96;56.91;100170.84;685346;28;1110;-90
2023/12/23 00:51:52;;;;;;;2.63;1.10;;;;;;;10.86;56.35;100151.53;685927;28;1302;-90
2023/12/23 00:52:13;;;;;;;3.75;1.20;;;;;;;10.96;56.65;100137.75;680483;29;1217;-90
2023/12/23 00:52:34;;;;;;;9.80;1.50;;;;;;;11.02;56.37;100146.56;683066;29;820;-89
2023/12/23 00:52:54;;;;;;;9.05;1.48;;;;;;;11.00;56.01;100138.69;682871;29;1141;-89
2023/12/23 00:53:15;;;;;;;8.00;1.50;;;;;;;10.98;56.44;100124.75;683274;28;1154;-89
2023/12/23 00:53:37;;;;;;;2.22;1.20;;;;;;;11.12;56.65;100137.16;686852;28;1231;-89
2023/12/23 00:53:58;;;;;;;2.35;1.10;;;;;;;11.11;56.71;100131.03;685514;28;1250;-89
2023/12/23 00:54:19;;;;;;;2.08;1.02;;;;;;;11.20;56.76;100152.06;682973;28;1379;-90
2023/12/23 00:54:41;;;;;;;3.40;1.20;;;;;;;11.11;56.54;100149.31;681259;29;1228;-90
2023/12/23 00:55:02;;;;;;;5.63;1.40;;;;;;;11.06;56.36;100138.78;682920;28;1146;-89
2023/12/23 00:55:23;;;;;;;8.63;1.60;;;;;;;11.11;56.47;100151.91;680389;29;1200;-90
2023/12/23 00:55:44;;;;;;;7.68;1.50;;;;;;;11.07;56.43;100139.69;682424;28;1355;-89
2023/12/23 00:56:05;;;;;;;3.50;1.25;;;;;;;11.15;56.52;100153.75;683289;28;1674;-89
2023/12/23 00:56:25;;;;;;;2.30;1.20;;;;;;;11.17;56.21;100165.09;682879;29;1193;-89
2023/12/23 00:56:46;;;;;;;3.22;1.25;;;;;;;11.07;56.42;100143.16;682869;29;1355;-90
2023/12/23 00:57:07;;;;;;;4.23;1.30;;;;;;;11.18;56.26;100161.63;685515;28;1028;-90
2023/12/23 00:57:27;;;;;;;3.50;1.08;;;;;;;11.23;56.70;100166.91;682999;28;1143;-89
2023/12/23 00:57:48;;;;;;;4.00;1.13;;;;;;;11.15;56.47;100147.63;685611;28;1193;-89
2023/12/23 00:58:09;;;;;;;6.60;1.20;;;;;;;11.23;56.43;100154.75;685129;28;1165;-90
2023/12/23 00:58:29;;;;;;;6.78;1.38;;;;;;;11.22;56.36;100155.59;683280;28;824;-90
2023/12/23 00:58:50;;;;;;;4.53;1.17;;;;;;;11.18;56.36;100150.31;685697;28;1155;-90
2023/12/23 00:59:11;;;;;;;2.13;1.20;;;;;;;11.18;56.36;100142.47;682688;29;1288;-90
2023/12/23 00:59:31;;;;;;;2.43;1.17;;;;;;;11.19;56.48;100155.53;681103;28;1753;-91
2023/12/23 00:59:54;;;;;;;4.82;1.40;;;;;;;11.18;56.12;100161.63;682675;29;1249;-89
2023/12/23 01:00:15;;;;;;;5.60;1.40;;;;;;;11.05;56.17;100157.06;685679;28;1137;-90
2023/12/23 01:00:37;;;;;;;5.45;1.30;;;;;;;11.08;56.39;100172.78;685519;28;859;-89
2023/12/23 01:00:58;;;;;;;3.20;0.90;;;;;;;11.04;56.33;100155.28;682972;28;1399;-89
2023/12/23 01:01:19;;;;;;;3.33;1.13;;;;;;;11.07;56.65;100160.56;679634;29;1342;-90
2023/12/23 01:01:42;;;;;;;3.00;1.13;;;;;;;11.04;56.41;100142.22;684482;28;1390;-90
2023/12/23 01:02:03;;;;;;;3.28;1.35;;;;;;;11.04;56.37;100160.50;682887;28;1218;-90
2023/12/23 01:02:23;;;;;;;3.80;1.13;;;;;;;10.97;56.11;100142.16;682975;29;1420;-89
2023/12/23 01:02:44;;;;;;;4.20;1.17;;;;;;;11.07;56.44;100155.34;680813;29;1338;-90
2023/12/23 01:03:05;;;;;;;3.10;1.00;;;;;;;11.05;56.25;100152.72;682772;29;1085;-90
2023/12/23 01:03:26;;;;;;;1.20;1.02;;;;;;;11.09;56.33;100143.19;682850;29;1388;-89
2023/12/23 01:03:47;;;;;;;1.50;1.10;;;;;;;11.09;56.47;100144.09;688094;28;1190;-89
2023/12/23 01:04:07;;;;;;;1.50;1.10;;;;;;;11.09;56.13;100151.03;688223;28;1415;-90
2023/12/23 01:04:28;;;;;;;2.00;1.10;;;;;;;11.02;56.45;100146.56;680095;29;1177;-90
2023/12/23 01:04:49;;;;;;;1.83;1.10;;;;;;;10.95;56.05;100153.44;679509;29;1263;-90
2023/12/23 01:05:10;;;;;;;1.93;1.20;;;;;;;10.97;56.11;100150.00;682796;29;1974;-90
2023/12/23 01:05:30;;;;;;;1.47;1.10;;;;;;;10.92;56.24;100145.53;678144;29;810;-90
2023/12/23 01:05:51;;;;;;;4.68;1.10;;;;;;;10.95;55.67;100150.81;680270;29;1182;-89
2023/12/23 01:06:12;;;;;;;4.80;1.00;;;;;;;10.96;56.19;100148.22;685502;28;1291;-91
2023/12/23 01:06:32;;;;;;;4.90;1.10;;;;;;;11.13;56.11;100163.28;682650;29;1147;-89
2023/12/23 01:06:53;;;;;;;1.27;1.00;;;;;;;11.05;56.17;100152.72;678320;29;1442;-89
2023/12/23 01:07:13;;;;;;;1.67;1.17;;;;;;;11.06;56.09;100154.47;682926;29;1095;-90
2023/12/23 01:07:37;;;;;;;1.67;1.10;;;;;;;11.10;56.31;100161.50;680384;29;805;-90
2023/12/23 01:07:57;;;;;;;1.60;1.00;;;;;;;11.11;55.95;100157.16;677043;29;1377;-90
2023/12/23 01:08:18;;;;;;;1.10;0.70;;;;;;;11.04;56.32;100160.50;680240;29;1250;-90
2023/12/23 01:08:39;;;;;;;1.10;0.70;;;;;;;11.04;56.16;100160.50;682864;28;1270;-89
2023/12/23 01:08:59;;;;;;;1.48;0.80;;;;;;;11.02;56.25;100163.13;685833;28;1315;-90
2023/12/23 01:09:20;;;;;;;2.60;1.05;;;;;;;11.02;56.32;100164.84;683208;28;994;-90
2023/12/23 01:09:41;;;;;;;4.20;1.30;;;;;;;10.95;56.34;100151.66;681063;29;1146;-89
2023/12/23 01:10:01;;;;;;;4.43;1.35;;;;;;;10.86;55.84;100164.56;682995;28;1161;-90
2023/12/23 01:10:24;;;;;;;3.47;1.17;;;;;;;10.94;56.30;100154.28;683012;29;1147;-89
2023/12/23 01:10:45;;;;;;;2.15;1.17;;;;;;;10.89;56.62;100154.22;687924;28;1277;-90
2023/12/23 01:11:05;;;;;;;2.30;1.40;;;;;;;10.99;56.68;100162.19;683141;29;1192;-90
2023/12/23 01:11:26;;;;;;;2.30;1.35;;;;;;;10.97;56.63;100155.22;682270;29;1469;-90
2023/12/23 01:11:47;;;;;;;1.90;1.20;;;;;;;10.99;56.55;100151.75;687952;28;1184;-90
2023/12/23 01:12:07;;;;;;;1.00;0.90;;;;;;;11.07;56.70;100155.34;680084;29;1487;-89
2023/12/23 01:12:28;;;;;;;1.00;0.83;;;;;;;11.02;56.05;100163.13;680541;28;1118;-90
2023/12/23 01:12:49;;;;;;;2.90;1.20;;;;;;;11.11;56.58;100162.38;682898;29;1300;-89
2023/12/23 01:13:09;;;;;;;4.10;1.30;;;;;;;11.11;56.43;100167.59;680299;29;1147;-90
2023/12/23 01:13:30;;;;;;;5.20;1.63;;;;;;;11.16;56.38;100165.94;680232;29;1202;-90
2023/12/23 01:13:51;;;;;;;5.13;1.37;;;;;;;11.08;56.49;100149.28;680301;29;1193;-89
2023/12/23 01:14:11;;;;;;;4.80;1.38;;;;;;;11.10;56.51;100160.63;682797;29;1320;-90
2023/12/23 01:14:32;;;;;;;3.95;1.10;;;;;;;11.23;56.23;100166.91;685380;28;1178;-90
2023/12/23 01:14:53;;;;;;;3.40;1.10;;;;;;;11.09;56.19;100148.41;680433;29;1234;-90
2023/12/23 01:15:14;;;;;;;5.05;1.20;;;;;;;11.08;56.60;100151.88;679596;29;1213;-89
2023/12/23 01:15:34;;;;;;;5.00;1.10;;;;;;;11.12;56.14;100145.84;680797;29;1155;-89
2023/12/23 01:16:15;;;;;;;3.70;1.00;;;;;;;11.11;55.73;100175.41;684142;28;1172;-90
2023/12/23 01:16:42;;;;;;;0.90;0.73;;;;;;;11.02;55.92;100151.78;687181;28;1236;-89
2023/12/23 01:17:03;;;;;;;1.00;0.80;;;;;;;11.10;55.96;100165.84;680170;29;1276;-90
2023/12/23 01:17:24;;;;;;;3.60;0.80;;;;;;;10.97;56.12;100152.59;684514;28;1354;-90
2023/12/23 01:17:45;;;;;;;4.55;1.02;;;;;;;11.05;56.17;100152.72;680476;29;1143;-90
2023/12/23 01:18:05;;;;;;;5.03;1.10;;;;;;;11.07;56.19;100160.56;680353;29;1431;-90
2023/12/23 01:18:26;;;;;;;2.77;1.30;;;;;;;10.93;55.51;100163.84;680928;29;1147;-89
2023/12/23 01:18:46;;;;;;;2.83;1.10;;;;;;;11.02;55.47;100167.44;685296;28;1248;-90
2023/12/23 01:19:07;;;;;;;4.78;1.40;;;;;;;10.97;55.04;100160.44;683980;28;1225;-88
2023/12/23 01:19:28;;;;;;;4.40;1.30;;;;;;;11.04;55.77;100170.94;685747;28;1150;-90
2023/12/23 01:19:48;;;;;;;5.20;1.37;;;;;;;11.09;55.74;100169.31;682694;29;1149;-89
2023/12/23 01:20:09;;;;;;;4.50;1.40;;;;;;;11.11;54.84;100162.38;680411;29;1236;-89
2023/12/23 01:20:30;;;;;;;7.20;1.52;;;;;;;11.11;55.46;100162.38;685580;28;1284;-89
2023/12/23 01:20:51;;;;;;;5.30;1.50;;;;;;;11.17;55.20;100178.13;680911;28;1217;-89
2023/12/23 01:21:11;;;;;;;4.70;1.30;;;;;;;11.17;55.23;100172.91;680058;29;1541;-90
2023/12/23 01:21:32;;;;;;;2.58;1.20;;;;;;;11.20;55.65;100167.72;682223;28;1276;-90
2023/12/23 01:21:52;;;;;;;3.08;1.27;;;;;;;11.32;55.70;100171.41;677261;29;1289;-89
2023/12/23 01:22:13;;;;;;;3.37;1.30;;;;;;;11.21;55.24;100168.63;677568;29;1550;-90
2023/12/23 01:22:34;;;;;;;3.22;1.20;;;;;;;11.28;55.56;100170.47;677538;29;1378;-89
2023/12/23 01:22:54;;;;;;;2.50;1.10;;;;;;;11.30;55.82;100165.28;677671;29;881;-90
2023/12/23 01:23:15;;;;;;;1.70;1.10;;;;;;;11.23;55.34;100161.69;677765;29;1118;-89
2023/12/23 01:23:36;;;;;;;2.08;1.10;;;;;;;11.18;55.12;100172.06;681119;29;1182;-90
2023/12/23 01:23:56;;;;;;;3.90;1.27;;;;;;;11.23;55.70;100164.28;679269;29;1360;-90
2023/12/23 01:24:17;;;;;;;4.20;1.20;;;;;;;11.24;55.59;100174.78;678415;29;1677;-90
2023/12/23 01:24:38;;;;;;;5.90;1.30;;;;;;;11.22;55.86;100181.72;682245;29;1210;-89
2023/12/23 01:24:58;;;;;;;5.78;1.40;;;;;;;11.21;56.26;100161.69;681692;29;1172;-89
2023/12/23 01:25:22;;;;;;;6.28;1.58;;;;;;;11.18;55.41;100160.75;677587;29;1910;-89
2023/12/23 01:25:43;;;;;;;4.32;1.38;;;;;;;11.24;55.87;100166.94;680222;29;1272;-88
2023/12/23 01:26:05;;;;;;;2.75;1.23;;;;;;;11.31;55.74;100174.88;680116;29;1323;-89
2023/12/23 01:26:26;;;;;;;2.63;1.10;;;;;;;11.27;55.19;100168.72;681342;29;1230;-89
2023/12/23 01:26:46;;;;;;;2.15;1.17;;;;;;;11.27;55.65;100168.72;683282;28;801;-89
2023/12/23 01:27:07;;;;;;;3.70;1.13;;;;;;;11.27;55.48;100173.06;677550;29;1240;-89
2023/12/23 01:27:28;;;;;;;4.10;1.38;;;;;;;11.21;55.82;100161.69;677799;29;1446;-89
2023/12/23 01:27:49;;;;;;;3.50;1.30;;;;;;;11.28;55.76;100164.38;680234;29;1268;-89
2023/12/23 01:28:09;;;;;;;1.90;1.30;;;;;;;11.28;55.90;100183.53;682644;29;1660;-89
2023/12/23 01:28:30;;;;;;;1.80;1.10;;;;;;;11.09;54.97;100169.31;677699;29;1180;-89
2023/12/23 01:28:51;;;;;;;3.20;1.40;;;;;;;11.13;54.68;100165.91;683013;29;1239;-89
2023/12/23 01:29:11;;;;;;;3.08;1.30;;;;;;;11.22;55.34;100181.72;685199;28;1215;-89
2023/12/23 01:29:32;;;;;;;2.90;1.40;;;;;;;11.27;55.34;100167.84;680003;29;1281;-89
2023/12/23 01:29:53;;;;;;;2.85;1.10;;;;;;;11.15;54.82;100158.06;680168;29;1117;-89
2023/12/23 01:30:14;;;;;;;4.05;1.10;;;;;;;11.25;55.42;100186.13;681964;29;1328;-90
2023/12/23 01:30:34;;;;;;;3.90;1.10;;;;;;;11.13;54.52;100181.56;682826;29;1403;-89
2023/12/23 01:30:55;;;;;;;1.42;1.00;;;;;;;11.14;55.18;100152.00;685943;28;1297;-89
2023/12/23 01:31:20;;;;;;;2.70;1.02;;;;;;;11.28;55.41;100165.25;679640;28;1431;-89
2023/12/23 01:31:41;;;;;;;5.82;1.10;;;;;;;11.34;55.47;100177.53;682994;28;1230;-90
2023/12/23 01:32:02;;;;;;;5.82;1.10;;;;;;;11.29;55.63;100176.59;682681;29;1251;-89
2023/12/23 01:32:22;;;;;;;2.22;1.20;;;;;;;11.37;55.59;100181.06;682791;29;1300;-89
2023/12/23 01:32:43;;;;;;;2.80;1.47;;;;;;;11.28;55.85;100164.38;681590;29;1249;-89
2023/12/23 01:33:04;;;;;;;3.13;1.48;;;;;;;11.29;55.76;100160.94;682360;29;1252;-89
2023/12/23 01:33:25;;;;;;;3.53;1.30;;;;;;;11.32;55.87;100168.78;683039;28;1195;-89
2023/12/23 01:33:45;;;;;;;3.72;1.05;;;;;;;11.24;55.85;100148.66;682843;29;905;-89
2023/12/23 01:34:06;;;;;;;3.40;1.10;;;;;;;11.32;55.70;100160.97;680529;28;1235;-90
2023/12/23 01:34:27;;;;;;;2.80;1.20;;;;;;;11.35;55.48;100164.50;681649;29;1216;-89
2023/12/23 01:34:47;;;;;;;4.88;1.15;;;;;;;11.37;55.56;100168.00;685571;28;1330;-90
2023/12/23 01:35:08;;;;;;;4.63;1.02;;;;;;;11.29;55.20;100171.38;683248;28;1161;-90
2023/12/23 01:35:29;;;;;;;3.27;0.90;;;;;;;11.24;55.31;100172.16;683017;29;733;-89
2023/12/23 01:35:49;;;;;;;1.80;1.00;;;;;;;11.20;55.41;100167.72;680143;29;1294;-89
2023/12/23 01:36:10;;;;;;;2.92;1.00;;;;;;;11.26;55.53;100171.31;685708;28;1279;-90
2023/12/23 01:36:30;;;;;;;3.60;1.30;;;;;;;11.32;55.57;100182.72;679923;29;1197;-89
2023/12/23 01:36:52;;;;;;;3.42;1.20;;;;;;;11.31;55.10;100186.19;680415;29;1431;-89
2023/12/23 01:37:13;;;;;;;3.20;1.40;;;;;;;11.20;54.93;100172.94;681465;29;1302;-90
2023/12/23 01:37:38;;;;;;;2.90;1.27;;;;;;;11.31;55.50;100180.09;681383;29;1479;-89
2023/12/23 01:37:58;;;;;;;8.53;1.17;;;;;;;11.24;55.04;100171.28;685294;28;1261;-90
2023/12/23 01:38:19;;;;;;;7.82;1.10;;;;;;;11.38;55.37;100181.97;682775;28;1272;-89
2023/12/23 01:38:40;;;;;;;7.63;1.17;;;;;;;11.36;55.38;100175.81;676149;29;1262;-89
2023/12/23 01:39:01;;;;;;;2.60;1.20;;;;;;;11.21;54.68;100171.22;682905;28;1241;-88
2023/12/23 01:39:21;;;;;;;2.33;1.00;;;;;;;11.28;55.00;100180.03;682882;29;1018;-90
2023/12/23 01:39:42;;;;;;;4.30;1.20;;;;;;;11.35;55.08;100176.66;686165;28;1363;-89
2023/12/23 01:40:03;;;;;;;4.70;1.35;;;;;;;11.38;55.26;100185.44;685566;28;1164;-88